<?xml version='1.0' encoding='UTF-8'?><gpx version="1.1" creator="JPX - https://github.com/jenetics/jpx" xmlns="http://www.topografix.com/GPX/1/1"><trk><trkseg><trkpt lat="45.63897066118742" lon="9.53113789648174"><ele>209.00000000000003</ele><time>2026-04-11T14:28:16Z</time></trkpt><trkpt lat="45.63898977569389" lon="9.531270171351794"><ele>209.0</ele><time>2026-04-11T14:28:44Z</time></trkpt><trkpt lat="45.638999359492594" lon="9.531363348892823"><ele>209.0</ele><time>2026-04-11T14:28:46Z</time></trkpt><trkpt lat="45.639060022476585" lon="9.531454392928042"><ele>209.0</ele><time>2026-04-11T14:28:49Z</time></trkpt><trkpt lat="45.638962584955394" lon="9.5315305115843"><ele>209.00000000000003</ele><time>2026-04-11T14:28:52Z</time></trkpt><trkpt lat="45.63890321058676" lon="9.531463984652266"><ele>209.0</ele><time>2026-04-11T14:28:54Z</time></trkpt><trkpt lat="45.638844505364304" lon="9.531424935223173"><ele>209.0</ele><time>2026-04-11T14:28:55Z</time></trkpt><trkpt lat="45.638779772587036" lon="9.531481214430352"><ele>209.0</ele><time>2026-04-11T14:28:58Z</time></trkpt><trkpt lat="45.63874891793656" lon="9.53163740221609"><ele>209.0</ele><time>2026-04-11T14:29:00Z</time></trkpt><trkpt lat="45.638666815194966" lon="9.53172821908646"><ele>209.0</ele><time>2026-04-11T14:29:02Z</time></trkpt><trkpt lat="45.63862858849094" lon="9.531896904617406"><ele>209.0</ele><time>2026-04-11T14:29:04Z</time></trkpt><trkpt lat="45.638601373836416" lon="9.532001001762538"><ele>209.0</ele><time>2026-04-11T14:29:06Z</time></trkpt><trkpt lat="45.63882154333602" lon="9.532051129679646"><ele>209.0</ele><time>2026-04-11T14:29:10.999Z</time></trkpt><trkpt lat="45.638940848051945" lon="9.532053440161784"><ele>209.0</ele><time>2026-04-11T14:29:12.999Z</time></trkpt><trkpt lat="45.63899810845442" lon="9.532153634398112"><ele>209.0</ele><time>2026-04-11T14:29:14.999Z</time></trkpt><trkpt lat="45.63900134085533" lon="9.53225823978344"><ele>209.33333333333334</ele><time>2026-04-11T14:29:16.999Z</time></trkpt><trkpt lat="45.63902514803736" lon="9.532345408147597"><ele>209.66666666666669</ele><time>2026-04-11T14:29:19.999Z</time></trkpt><trkpt lat="45.639080743476065" lon="9.532433782109102"><ele>210.0</ele><time>2026-04-11T14:29:21.999Z</time></trkpt><trkpt lat="45.63917311835739" lon="9.53247884714777"><ele>210.33333333333331</ele><time>2026-04-11T14:29:25.999Z</time></trkpt><trkpt lat="45.63922854988291" lon="9.53261571579614"><ele>210.66666666666666</ele><time>2026-04-11T14:29:27.999Z</time></trkpt><trkpt lat="45.63917426107456" lon="9.532684037729164"><ele>211.0</ele><time>2026-04-11T14:29:30.999Z</time></trkpt><trkpt lat="45.63909802222165" lon="9.532763202526397"><ele>210.99999999999997</ele><time>2026-04-11T14:29:33Z</time></trkpt><trkpt lat="45.63902308427343" lon="9.532709577576352"><ele>211.0</ele><time>2026-04-11T14:29:38Z</time></trkpt><trkpt lat="45.63894193149481" lon="9.532691170712967"><ele>211.0</ele><time>2026-04-11T14:29:40Z</time></trkpt><trkpt lat="45.63888708256687" lon="9.53264107446753"><ele>211.0</ele><time>2026-04-11T14:29:42Z</time></trkpt><trkpt lat="45.63880594773846" lon="9.532615143680854"><ele>210.99999999999997</ele><time>2026-04-11T14:29:44Z</time></trkpt><trkpt lat="45.63873454080327" lon="9.532651653601837"><ele>211.0</ele><time>2026-04-11T14:29:47Z</time></trkpt><trkpt lat="45.63867922304372" lon="9.5327246188331"><ele>211.0</ele><time>2026-04-11T14:29:49Z</time></trkpt><trkpt lat="45.63864826760477" lon="9.532617867611972"><ele>211.0</ele><time>2026-04-11T14:29:55Z</time></trkpt><trkpt lat="45.638551376603715" lon="9.532615727366366"><ele>211.0</ele><time>2026-04-11T14:29:57Z</time></trkpt><trkpt lat="45.638441740646705" lon="9.53268005038667"><ele>211.0</ele><time>2026-04-11T14:29:59Z</time></trkpt><trkpt lat="45.6383964149371" lon="9.532793911554554"><ele>211.0</ele><time>2026-04-11T14:30:01Z</time></trkpt><trkpt lat="45.63834379001645" lon="9.5329406659745"><ele>210.49999999999997</ele><time>2026-04-11T14:30:03Z</time></trkpt><trkpt lat="45.6383171315067" lon="9.533062232509513"><ele>210.0</ele><time>2026-04-11T14:30:06Z</time></trkpt><trkpt lat="45.63831354141856" lon="9.53315977264026"><ele>209.5</ele><time>2026-04-11T14:30:10Z</time></trkpt><trkpt lat="45.6383273882049" lon="9.533256345043077"><ele>209.0</ele><time>2026-04-11T14:30:12Z</time></trkpt><trkpt lat="45.63832374754578" lon="9.533388537503301"><ele>208.49999999999997</ele><time>2026-04-11T14:30:14Z</time></trkpt><trkpt lat="45.638295047399446" lon="9.533471457543131"><ele>208.0</ele><time>2026-04-11T14:30:16Z</time></trkpt><trkpt lat="45.638244098711645" lon="9.533550276677794"><ele>208.0</ele><time>2026-04-11T14:30:18Z</time></trkpt><trkpt lat="45.63817017717075" lon="9.533594711437438"><ele>208.0</ele><time>2026-04-11T14:30:20Z</time></trkpt><trkpt lat="45.63809891257569" lon="9.533663714248169"><ele>208.0</ele><time>2026-04-11T14:30:23Z</time></trkpt><trkpt lat="45.63801291305065" lon="9.533720692270009"><ele>208.0</ele><time>2026-04-11T14:30:25Z</time></trkpt><trkpt lat="45.63790874847692" lon="9.533816110704787"><ele>208.0</ele><time>2026-04-11T14:30:30Z</time></trkpt><trkpt lat="45.63787270175188" lon="9.533908194608761"><ele>207.83333333333331</ele><time>2026-04-11T14:30:31Z</time></trkpt><trkpt lat="45.637839357510245" lon="9.533986678524036"><ele>207.66666666666666</ele><time>2026-04-11T14:30:34Z</time></trkpt><trkpt lat="45.63782366843143" lon="9.534092341856043"><ele>207.5</ele><time>2026-04-11T14:30:36Z</time></trkpt><trkpt lat="45.63775817303027" lon="9.534162739182408"><ele>207.33333333333331</ele><time>2026-04-11T14:30:38Z</time></trkpt><trkpt lat="45.63767581735714" lon="9.534234827977688"><ele>207.16666666666666</ele><time>2026-04-11T14:30:41Z</time></trkpt><trkpt lat="45.63760561660971" lon="9.534264174067552"><ele>207.0</ele><time>2026-04-11T14:30:43Z</time></trkpt><trkpt lat="45.63749478339042" lon="9.534290467180643"><ele>207.0</ele><time>2026-04-11T14:30:45Z</time></trkpt><trkpt lat="45.63740251952432" lon="9.534310058087032"><ele>207.0</ele><time>2026-04-11T14:30:47Z</time></trkpt><trkpt lat="45.63734486242162" lon="9.534369995759802"><ele>207.0</ele><time>2026-04-11T14:30:50Z</time></trkpt><trkpt lat="45.637252121447865" lon="9.53436219517338"><ele>207.0</ele><time>2026-04-11T14:30:53Z</time></trkpt><trkpt lat="45.63719257074587" lon="9.53442114036064"><ele>207.0</ele><time>2026-04-11T14:30:55Z</time></trkpt><trkpt lat="45.63727214727404" lon="9.534330384501102"><ele>207.0</ele><time>2026-04-11T14:31:03Z</time></trkpt><trkpt lat="45.63733475539275" lon="9.534268181239984"><ele>207.0</ele><time>2026-04-11T14:31:05Z</time></trkpt><trkpt lat="45.63737563392905" lon="9.534167787165423"><ele>207.0</ele><time>2026-04-11T14:31:08Z</time></trkpt><trkpt lat="45.63730620570068" lon="9.534066664914212"><ele>207.0</ele><time>2026-04-11T14:31:13.999Z</time></trkpt><trkpt lat="45.637209987010316" lon="9.534036821166389"><ele>207.0</ele><time>2026-04-11T14:31:16.999Z</time></trkpt><trkpt lat="45.637137923805135" lon="9.534084614208423"><ele>207.0</ele><time>2026-04-11T14:31:19.999Z</time></trkpt><trkpt lat="45.637094746438386" lon="9.534151901870164"><ele>207.0</ele><time>2026-04-11T14:31:21.999Z</time></trkpt><trkpt lat="45.637010393451845" lon="9.534277950027526"><ele>207.0</ele><time>2026-04-11T14:31:23.999Z</time></trkpt><trkpt lat="45.6369526910551" lon="9.534321347419802"><ele>207.0</ele><time>2026-04-11T14:31:25.999Z</time></trkpt><trkpt lat="45.636901456727045" lon="9.534410574377668"><ele>207.0</ele><time>2026-04-11T14:31:27.999Z</time></trkpt><trkpt lat="45.63678010581452" lon="9.534467574440272"><ele>207.0</ele><time>2026-04-11T14:31:30.999Z</time></trkpt><trkpt lat="45.63671901577557" lon="9.534570503343463"><ele>207.0</ele><time>2026-04-11T14:31:32.999Z</time></trkpt><trkpt lat="45.63666756112105" lon="9.534656724148137"><ele>207.0</ele><time>2026-04-11T14:31:33.999Z</time></trkpt><trkpt lat="45.636563317924555" lon="9.534713531934615"><ele>207.0</ele><time>2026-04-11T14:31:35.999Z</time></trkpt><trkpt lat="45.63652708397871" lon="9.534808820826477"><ele>207.0</ele><time>2026-04-11T14:31:37.999Z</time></trkpt><trkpt lat="45.63650634942407" lon="9.534921174333874"><ele>207.0</ele><time>2026-04-11T14:31:39.999Z</time></trkpt><trkpt lat="45.636517645909514" lon="9.535099925270494"><ele>207.0</ele><time>2026-04-11T14:31:41.999Z</time></trkpt><trkpt lat="45.63655529622038" lon="9.535205482946331"><ele>207.0</ele><time>2026-04-11T14:31:43.999Z</time></trkpt><trkpt lat="45.63661896892238" lon="9.535277423628314"><ele>207.0</ele><time>2026-04-11T14:31:44.999Z</time></trkpt><trkpt lat="45.63668830937311" lon="9.535250487010984"><ele>207.0</ele><time>2026-04-11T14:31:46.999Z</time></trkpt><trkpt lat="45.63675664875392" lon="9.535190563119768"><ele>207.0</ele><time>2026-04-11T14:31:50.999Z</time></trkpt><trkpt lat="45.6369464807334" lon="9.535198795950029"><ele>207.0</ele><time>2026-04-11T14:31:58Z</time></trkpt><trkpt lat="45.63688491106864" lon="9.535222115489125"><ele>207.0</ele><time>2026-04-11T14:32:01Z</time></trkpt><trkpt lat="45.63677679844013" lon="9.535255691332598"><ele>207.0</ele><time>2026-04-11T14:32:03Z</time></trkpt><trkpt lat="45.63668988818124" lon="9.53532436213792"><ele>206.8</ele><time>2026-04-11T14:32:06Z</time></trkpt><trkpt lat="45.63661272591274" lon="9.53538932166329"><ele>206.6</ele><time>2026-04-11T14:32:11Z</time></trkpt><trkpt lat="45.636575571102554" lon="9.535474547176252"><ele>206.4</ele><time>2026-04-11T14:32:13Z</time></trkpt><trkpt lat="45.63647106950705" lon="9.535515935887128"><ele>206.20000000000002</ele><time>2026-04-11T14:32:16Z</time></trkpt><trkpt lat="45.63641942651149" lon="9.535600884897468"><ele>206.0</ele><time>2026-04-11T14:32:17Z</time></trkpt><trkpt lat="45.63636172099196" lon="9.535722941246966"><ele>206.00000000000003</ele><time>2026-04-11T14:32:19Z</time></trkpt><trkpt lat="45.636312221443276" lon="9.535805553287567"><ele>206.0</ele><time>2026-04-11T14:32:22Z</time></trkpt><trkpt lat="45.63627658939856" lon="9.535900663902183"><ele>206.0</ele><time>2026-04-11T14:32:24Z</time></trkpt><trkpt lat="45.63621061094613" lon="9.535901053870198"><ele>206.0</ele><time>2026-04-11T14:32:26Z</time></trkpt><trkpt lat="45.63613348678827" lon="9.535938305583723"><ele>206.00000000000003</ele><time>2026-04-11T14:32:28Z</time></trkpt><trkpt lat="45.63606644255445" lon="9.535976719449565"><ele>206.0</ele><time>2026-04-11T14:32:29Z</time></trkpt><trkpt lat="45.63598595132649" lon="9.536053284151143"><ele>205.60000000000002</ele><time>2026-04-11T14:32:30Z</time></trkpt><trkpt lat="45.63592680227397" lon="9.536142843499617"><ele>205.2</ele><time>2026-04-11T14:32:31Z</time></trkpt><trkpt lat="45.63590561019877" lon="9.536245822384863"><ele>204.8</ele><time>2026-04-11T14:32:33Z</time></trkpt><trkpt lat="45.63600403438373" lon="9.536095617081866"><ele>204.39999999999998</ele><time>2026-04-11T14:32:41Z</time></trkpt><trkpt lat="45.63601921918021" lon="9.535976523432144"><ele>204.0</ele><time>2026-04-11T14:32:42Z</time></trkpt><trkpt lat="45.636036350814045" lon="9.535876563825804"><ele>203.83333333333334</ele><time>2026-04-11T14:32:43Z</time></trkpt><trkpt lat="45.636077382249326" lon="9.535778162779392"><ele>203.66666666666669</ele><time>2026-04-11T14:32:44Z</time></trkpt><trkpt lat="45.63604412022237" lon="9.535694058066348"><ele>203.5</ele><time>2026-04-11T14:32:49Z</time></trkpt><trkpt lat="45.636111571268366" lon="9.535663468166819"><ele>203.33333333333334</ele><time>2026-04-11T14:32:51Z</time></trkpt><trkpt lat="45.636152280096994" lon="9.535535374588376"><ele>203.16666666666669</ele><time>2026-04-11T14:32:54Z</time></trkpt><trkpt lat="45.636187666233646" lon="9.535374108460314"><ele>203.0</ele><time>2026-04-11T14:32:56Z</time></trkpt><trkpt lat="45.63622456774468" lon="9.535276869075304"><ele>203.66666666666669</ele><time>2026-04-11T14:32:57Z</time></trkpt><trkpt lat="45.636249982784925" lon="9.535141427751645"><ele>204.33333333333334</ele><time>2026-04-11T14:32:58Z</time></trkpt><trkpt lat="45.636276266371254" lon="9.535031110266221"><ele>205.0</ele><time>2026-04-11T14:32:59Z</time></trkpt><trkpt lat="45.63629105494314" lon="9.534933916829184"><ele>205.66666666666669</ele><time>2026-04-11T14:33:01Z</time></trkpt><trkpt lat="45.6362346057628" lon="9.53483013756305"><ele>206.33333333333334</ele><time>2026-04-11T14:33:04Z</time></trkpt><trkpt lat="45.63621354587427" lon="9.534743313029178"><ele>207.0</ele><time>2026-04-11T14:33:06Z</time></trkpt><trkpt lat="45.63618820922362" lon="9.53462593603746"><ele>206.83333333333334</ele><time>2026-04-11T14:33:08Z</time></trkpt><trkpt lat="45.63618093536997" lon="9.534518726346567"><ele>206.66666666666669</ele><time>2026-04-11T14:33:10Z</time></trkpt><trkpt lat="45.63613960168994" lon="9.534429082111876"><ele>206.5</ele><time>2026-04-11T14:33:11Z</time></trkpt><trkpt lat="45.63612110746833" lon="9.534342011360222"><ele>206.33333333333334</ele><time>2026-04-11T14:33:12Z</time></trkpt><trkpt lat="45.63605693341377" lon="9.534230917087692"><ele>206.16666666666669</ele><time>2026-04-11T14:33:14Z</time></trkpt><trkpt lat="45.63599341960106" lon="9.534133991397873"><ele>206.0</ele><time>2026-04-11T14:33:17Z</time></trkpt><trkpt lat="45.636051316868596" lon="9.534085840940174"><ele>206.0</ele><time>2026-04-11T14:33:20.999Z</time></trkpt><trkpt lat="45.636115314003625" lon="9.533965915255054"><ele>206.0</ele><time>2026-04-11T14:33:23.999Z</time></trkpt><trkpt lat="45.63622398842489" lon="9.533939545892396"><ele>206.0</ele><time>2026-04-11T14:33:28.999Z</time></trkpt><trkpt lat="45.63633601875185" lon="9.534043847025085"><ele>206.0</ele><time>2026-04-11T14:33:30.999Z</time></trkpt><trkpt lat="45.636520739712736" lon="9.533995370179962"><ele>206.0</ele><time>2026-04-11T14:33:35.999Z</time></trkpt><trkpt lat="45.63661398837458" lon="9.533918252939277"><ele>206.0</ele><time>2026-04-11T14:33:36.999Z</time></trkpt><trkpt lat="45.6367412640981" lon="9.533870541276322"><ele>206.0</ele><time>2026-04-11T14:33:37.999Z</time></trkpt><trkpt lat="45.63681135089128" lon="9.533854617772366"><ele>206.0</ele><time>2026-04-11T14:33:38.999Z</time></trkpt><trkpt lat="45.63688827069193" lon="9.533892100008703"><ele>206.0</ele><time>2026-04-11T14:33:40.999Z</time></trkpt><trkpt lat="45.63696513321052" lon="9.533845397689257"><ele>206.25</ele><time>2026-04-11T14:33:42.999Z</time></trkpt><trkpt lat="45.637041566779175" lon="9.533759013193624"><ele>206.5</ele><time>2026-04-11T14:33:45.999Z</time></trkpt><trkpt lat="45.63712692493844" lon="9.533709206523884"><ele>206.75</ele><time>2026-04-11T14:33:50Z</time></trkpt><trkpt lat="45.63731017242757" lon="9.53371814038698"><ele>207.0</ele><time>2026-04-11T14:33:56Z</time></trkpt><trkpt lat="45.63737374403017" lon="9.533634220937806"><ele>207.2</ele><time>2026-04-11T14:33:57Z</time></trkpt><trkpt lat="45.63742850408158" lon="9.533584203871708"><ele>207.39999999999998</ele><time>2026-04-11T14:33:58Z</time></trkpt><trkpt lat="45.63745423003311" lon="9.533440796988582"><ele>207.60000000000002</ele><time>2026-04-11T14:34:00Z</time></trkpt><trkpt lat="45.637532527783755" lon="9.533408484163731"><ele>207.8</ele><time>2026-04-11T14:34:01Z</time></trkpt><trkpt lat="45.637648147482594" lon="9.533368138643823"><ele>208.0</ele><time>2026-04-11T14:34:06Z</time></trkpt><trkpt lat="45.63771383326974" lon="9.53326463953615"><ele>207.99999999999997</ele><time>2026-04-11T14:34:09Z</time></trkpt><trkpt lat="45.63772014687007" lon="9.533157913202778"><ele>208.0</ele><time>2026-04-11T14:34:12Z</time></trkpt><trkpt lat="45.6377467437615" lon="9.53299519563319"><ele>208.0</ele><time>2026-04-11T14:34:15Z</time></trkpt><trkpt lat="45.63782070346486" lon="9.532920910395193"><ele>208.0</ele><time>2026-04-11T14:34:16Z</time></trkpt><trkpt lat="45.63786998886288" lon="9.532850297513416"><ele>207.99999999999997</ele><time>2026-04-11T14:34:18Z</time></trkpt><trkpt lat="45.63792584615999" lon="9.532764961936484"><ele>208.0</ele><time>2026-04-11T14:34:20Z</time></trkpt><trkpt lat="45.63802241551154" lon="9.53263996064858"><ele>207.99999999999997</ele><time>2026-04-11T14:34:22Z</time></trkpt><trkpt lat="45.63803717197832" lon="9.53254982977713"><ele>208.0</ele><time>2026-04-11T14:34:23Z</time></trkpt><trkpt lat="45.638055120380294" lon="9.532449073683999"><ele>208.0</ele><time>2026-04-11T14:34:24Z</time></trkpt><trkpt lat="45.63813197109216" lon="9.532376722568065"><ele>208.0</ele><time>2026-04-11T14:34:26Z</time></trkpt><trkpt lat="45.638183817950804" lon="9.532283356057357"><ele>207.99999999999997</ele><time>2026-04-11T14:34:28Z</time></trkpt><trkpt lat="45.63825975436391" lon="9.53212142313781"><ele>208.0</ele><time>2026-04-11T14:34:31Z</time></trkpt><trkpt lat="45.6383244819829" lon="9.532035685297958"><ele>208.0</ele><time>2026-04-11T14:34:33Z</time></trkpt><trkpt lat="45.63838651287317" lon="9.531939104893077"><ele>208.0</ele><time>2026-04-11T14:34:35Z</time></trkpt><trkpt lat="45.63840390873621" lon="9.531834005373408"><ele>208.0</ele><time>2026-04-11T14:34:37Z</time></trkpt><trkpt lat="45.63842585116893" lon="9.531734150054744"><ele>208.0</ele><time>2026-04-11T14:34:38Z</time></trkpt><trkpt lat="45.638460779827604" lon="9.53164791358601"><ele>208.0</ele><time>2026-04-11T14:34:41Z</time></trkpt><trkpt lat="45.6384879193415" lon="9.531552704496072"><ele>208.0</ele><time>2026-04-11T14:34:43Z</time></trkpt><trkpt lat="45.6385236659821" lon="9.531473783779399"><ele>208.0</ele><time>2026-04-11T14:34:45Z</time></trkpt><trkpt lat="45.63860782511126" lon="9.531435820951751"><ele>208.16666666666666</ele><time>2026-04-11T14:34:47Z</time></trkpt><trkpt lat="45.63869698519026" lon="9.531417553651513"><ele>208.33333333333331</ele><time>2026-04-11T14:34:48Z</time></trkpt><trkpt lat="45.63870058629989" lon="9.53132123136064"><ele>208.5</ele><time>2026-04-11T14:34:50Z</time></trkpt><trkpt lat="45.63878056534094" lon="9.531336275318884"><ele>208.66666666666669</ele><time>2026-04-11T14:34:52Z</time></trkpt><trkpt lat="45.63883976810413" lon="9.531275898636952"><ele>208.83333333333334</ele><time>2026-04-11T14:34:54Z</time></trkpt><trkpt lat="45.63890627847789" lon="9.531299039796139"><ele>209.0</ele><time>2026-04-11T14:34:57Z</time></trkpt><trkpt lat="45.63899647685468" lon="9.53121464908308"><ele>209.0</ele><time>2026-04-11T14:34:59Z</time></trkpt><trkpt lat="45.639033543404125" lon="9.531096125276727"><ele>209.0</ele><time>2026-04-11T14:35:01Z</time></trkpt><trkpt lat="45.6390841471247" lon="9.530956520637485"><ele>209.0</ele><time>2026-04-11T14:35:03Z</time></trkpt><trkpt lat="45.63915623957919" lon="9.530834362299812"><ele>209.0</ele><time>2026-04-11T14:35:05Z</time></trkpt><trkpt lat="45.63921782575426" lon="9.53077795049424"><ele>209.0</ele><time>2026-04-11T14:35:07Z</time></trkpt><trkpt lat="45.639346890152886" lon="9.530706645765656"><ele>209.0</ele><time>2026-04-11T14:35:10Z</time></trkpt><trkpt lat="45.63944843017233" lon="9.530656106778048"><ele>209.0</ele><time>2026-04-11T14:35:12Z</time></trkpt><trkpt lat="45.63952366359352" lon="9.530604798675132"><ele>209.0</ele><time>2026-04-11T14:35:13Z</time></trkpt><trkpt lat="45.6395847878541" lon="9.530494664789732"><ele>209.0</ele><time>2026-04-11T14:35:15Z</time></trkpt><trkpt lat="45.63962680021087" lon="9.530403859311262"><ele>209.0</ele><time>2026-04-11T14:35:18Z</time></trkpt><trkpt lat="45.63972985134702" lon="9.530301693245425"><ele>209.33333333333334</ele><time>2026-04-11T14:35:20Z</time></trkpt><trkpt lat="45.63976249863878" lon="9.530221090893345"><ele>209.66666666666669</ele><time>2026-04-11T14:35:24.001Z</time></trkpt><trkpt lat="45.64012221747638" lon="9.530131894095092"><ele>210.0</ele><time>2026-04-11T14:35:28.999Z</time></trkpt><trkpt lat="45.640199897794766" lon="9.530099005416238"><ele>210.0</ele><time>2026-04-11T14:35:29.999Z</time></trkpt><trkpt lat="45.640270518439756" lon="9.530066987468906"><ele>210.0</ele><time>2026-04-11T14:35:30.999Z</time></trkpt><trkpt lat="45.64036027510755" lon="9.530003318102402"><ele>210.0</ele><time>2026-04-11T14:35:34.999Z</time></trkpt><trkpt lat="45.64042500403961" lon="9.529960235473002"><ele>210.0</ele><time>2026-04-11T14:35:35.999Z</time></trkpt><trkpt lat="45.640486627913894" lon="9.529994718757932"><ele>210.0</ele><time>2026-04-11T14:35:39.999Z</time></trkpt><trkpt lat="45.640497636722415" lon="9.53014664867071"><ele>210.0</ele><time>2026-04-11T14:35:40.999Z</time></trkpt><trkpt lat="45.640509114914174" lon="9.530331467751559"><ele>210.0</ele><time>2026-04-11T14:35:42.999Z</time></trkpt><trkpt lat="45.640507583247896" lon="9.530428458258717"><ele>210.0</ele><time>2026-04-11T14:35:44.999Z</time></trkpt><trkpt lat="45.6404477273906" lon="9.530460666142211"><ele>210.0</ele><time>2026-04-11T14:35:49Z</time></trkpt><trkpt lat="45.640354853794385" lon="9.53048551071475"><ele>210.0</ele><time>2026-04-11T14:35:50Z</time></trkpt><trkpt lat="45.64028658284669" lon="9.530518189331822"><ele>210.0</ele><time>2026-04-11T14:35:51Z</time></trkpt><trkpt lat="45.64017823359631" lon="9.530544770212948"><ele>210.0</ele><time>2026-04-11T14:35:52Z</time></trkpt><trkpt lat="45.64002870586453" lon="9.530539956770344"><ele>210.0</ele><time>2026-04-11T14:35:53Z</time></trkpt><trkpt lat="45.63991058549103" lon="9.5305685166709"><ele>210.0</ele><time>2026-04-11T14:35:54Z</time></trkpt><trkpt lat="45.6397939277146" lon="9.530597500535876"><ele>210.0</ele><time>2026-04-11T14:35:55Z</time></trkpt><trkpt lat="45.6397061702902" lon="9.530594603768968"><ele>210.0</ele><time>2026-04-11T14:35:56Z</time></trkpt><trkpt lat="45.63962064947779" lon="9.530629786377895"><ele>210.0</ele><time>2026-04-11T14:35:57Z</time></trkpt><trkpt lat="45.63955184238744" lon="9.530613607893494"><ele>210.0</ele><time>2026-04-11T14:35:58Z</time></trkpt><trkpt lat="45.63949048295604" lon="9.530662167408481"><ele>210.0</ele><time>2026-04-11T14:35:59Z</time></trkpt><trkpt lat="45.639421026063324" lon="9.530714964479252"><ele>210.0</ele><time>2026-04-11T14:36:00Z</time></trkpt><trkpt lat="45.639350745005636" lon="9.530755070731319"><ele>210.0</ele><time>2026-04-11T14:36:01Z</time></trkpt><trkpt lat="45.63929155407386" lon="9.530808949418365"><ele>210.0</ele><time>2026-04-11T14:36:02Z</time></trkpt><trkpt lat="45.63921050327423" lon="9.530884753035867"><ele>210.0</ele><time>2026-04-11T14:36:04Z</time></trkpt><trkpt lat="45.639102734903126" lon="9.53097144413231"><ele>209.0</ele><time>2026-04-11T14:36:06Z</time></trkpt><trkpt lat="45.63904151408596" lon="9.53100436304886"><ele>209.0</ele><time>2026-04-11T14:36:11Z</time></trkpt></trkseg></trk></gpx>